createdAt,value
2022-09-28T00:01:26.698Z,11.50
2022-09-28T00:04:13.405Z,17.20
2022-09-28T00:07:01.030Z,14.00
2022-09-28T00:09:48.000Z,16.90
2022-09-28T00:12:35.813Z,11.70
2022-09-28T00:15:22.984Z,14.60
2022-09-28T00:18:10.220Z,16.90
2022-09-28T00:21:05.771Z,17.70
2022-09-28T00:24:29.673Z,17.10
2022-09-28T00:27:16.522Z,14.70
2022-09-28T00:30:05.379Z,10.50
2022-09-28T00:32:52.176Z,13.20
2022-09-28T00:35:39.337Z,19.80
2022-09-28T00:38:28.402Z,16.40
2022-09-28T00:41:16.617Z,11.10
2022-09-28T00:44:37.476Z,14.90
2022-09-28T00:47:50.289Z,13.60
2022-09-28T00:50:37.280Z,14.20
2022-09-28T00:53:29.857Z,14.40
2022-09-28T00:56:21.569Z,17.40
2022-09-28T00:59:09.437Z,19.70
2022-09-28T05:54:51.657Z,7.10
2022-09-28T06:09:33.482Z,6.70
2022-09-28T06:13:32.648Z,4.10
2022-09-28T06:17:36.690Z,6.60
2022-09-28T06:21:41.520Z,6.10
2022-09-28T06:26:08.873Z,6.20
2022-09-28T06:45:01.731Z,4.90
2022-09-28T06:49:05.704Z,4.60
2022-09-28T06:53:19.502Z,3.90
2022-09-28T06:57:28.862Z,6.90
2022-09-28T07:01:12.475Z,7.50
2022-09-28T07:09:26.463Z,5.00
2022-09-28T07:15:02.189Z,6.50
2022-09-28T07:19:13.728Z,10.50
2022-09-28T07:23:18.837Z,6.80
2022-09-28T07:27:17.446Z,8.30
2022-09-28T07:36:16.176Z,6.00
2022-09-28T07:40:25.708Z,5.90
2022-09-28T07:44:44.308Z,4.20
2022-09-28T07:48:50.032Z,4.80
2022-09-28T07:52:55.387Z,5.80
2022-09-28T07:57:17.712Z,4.30
2022-09-28T08:12:19.768Z,4.70
2022-09-28T08:45:50.034Z,3.20
2022-09-28T08:51:05.171Z,3.30
2022-09-28T08:56:08.528Z,1.70
2022-09-28T09:00:36.999Z,3.10
2022-09-28T09:05:04.923Z,1.90
2022-09-28T09:09:21.700Z,5.50
2022-09-28T09:13:20.402Z,6.70
2022-09-28T09:18:10.779Z,2.40
2022-09-28T09:54:04.456Z,1.00
2022-09-28T10:10:23.416Z,1.90
2022-09-28T10:14:33.595Z,1.10
2022-09-28T10:24:00.978Z,1.30
2022-09-28T10:27:53.351Z,2.00
2022-09-28T10:31:23.009Z,0.90
2022-09-28T10:35:16.688Z,0.90
2022-09-28T10:39:08.440Z,1.90
2022-09-28T10:42:59.173Z,0.80
2022-09-28T10:46:49.981Z,2.60
2022-09-28T10:50:29.515Z,0.70
2022-09-28T10:54:41.684Z,2.60
2022-09-28T10:58:39.060Z,1.00
2022-09-28T11:03:23.687Z,0.90
2022-09-28T11:07:17.495Z,0.80
2022-09-28T11:14:55.893Z,1.40
2022-09-28T11:33:56.874Z,0.90
2022-09-28T11:38:34.706Z,0.80
2022-09-28T11:46:04.794Z,1.70
2022-09-28T11:49:36.377Z,1.00
2022-09-28T11:53:10.674Z,1.30
2022-09-28T11:57:18.598Z,0.60
2022-09-28T12:08:11.468Z,0.80
2022-09-28T12:11:57.621Z,1.10
2022-09-28T12:16:07.452Z,1.60
2022-09-28T12:20:08.832Z,5.70
2022-09-28T12:23:58.871Z,0.70
2022-09-28T12:28:04.188Z,3.30
2022-09-28T12:35:54.541Z,0.60
2022-09-28T12:54:40.730Z,1.70
2022-09-28T13:02:25.519Z,1.10
2022-09-28T13:06:14.549Z,2.70
2022-09-28T13:09:50.577Z,1.90
2022-09-28T13:17:25.595Z,3.20
2022-09-28T13:43:11.056Z,2.80
2022-09-28T13:58:27.399Z,4.10
2022-09-28T14:13:18.367Z,2.10
2022-09-28T14:28:24.743Z,1.80
2022-09-28T14:42:48.824Z,2.20
2022-09-28T14:48:09.685Z,2.70
2022-09-28T15:03:12.387Z,3.20
2022-09-28T15:12:46.661Z,2.90
2022-09-28T15:17:15.173Z,3.80
2022-09-28T15:27:21.087Z,4.50
2022-09-28T15:47:12.301Z,4.20
2022-09-28T15:56:16.203Z,2.90
2022-09-28T16:00:35.342Z,3.30
2022-09-28T16:19:25.475Z,3.50
2022-09-28T16:23:22.580Z,3.40
2022-09-28T16:27:35.285Z,7.40
2022-09-28T16:31:56.222Z,7.20
2022-09-28T16:35:55.768Z,8.00
2022-09-28T16:40:15.313Z,3.30
2022-09-28T16:44:31.346Z,11.20
2022-09-28T16:53:00.066Z,3.90
2022-09-28T16:57:06.802Z,5.70
2022-09-28T17:01:30.955Z,4.50
2022-09-28T17:05:27.750Z,4.50
2022-09-28T17:09:22.770Z,4.50
2022-09-28T17:13:24.987Z,3.70
2022-09-28T17:17:39.334Z,3.90
2022-09-28T17:25:55.854Z,7.40
2022-09-28T17:29:52.635Z,6.60
2022-09-28T17:33:49.824Z,7.70
2022-09-28T17:37:47.729Z,7.00
2022-09-28T17:41:49.652Z,5.00
2022-09-28T17:45:23.941Z,6.60
2022-09-28T17:52:47.622Z,8.90
2022-09-28T17:58:17.286Z,13.60
2022-09-28T18:02:24.743Z,11.80
2022-09-28T18:06:50.767Z,12.10
2022-09-28T18:10:48.284Z,9.80
2022-09-28T18:14:36.038Z,20.00
2022-09-28T18:18:29.905Z,17.20
2022-09-28T18:22:21.278Z,11.70
2022-09-28T18:26:46.599Z,10.50
2022-09-28T18:30:43.826Z,10.20
2022-09-28T18:34:46.832Z,12.40
2022-09-28T18:38:56.820Z,9.70
2022-09-28T18:42:55.099Z,12.30
2022-09-28T18:46:53.739Z,13.00
2022-09-28T18:50:51.187Z,9.10
2022-09-28T18:54:47.107Z,7.90
2022-09-28T18:58:44.091Z,11.40
2022-09-28T19:03:15.275Z,9.30
2022-09-28T19:07:21.455Z,8.40
2022-09-28T19:11:17.685Z,9.20
2022-09-28T19:15:13.362Z,17.50
2022-09-28T19:46:31.764Z,9.20
2022-09-28T20:10:28.742Z,10.30
2022-09-28T20:25:22.543Z,8.90
2022-09-28T20:29:41.370Z,10.70
2022-09-28T21:18:00.552Z,10.30
2022-09-28T21:41:46.796Z,9.10
2022-09-28T22:02:32.987Z,14.10
2022-09-28T22:17:59.017Z,13.50
2022-09-28T22:36:23.087Z,16.00
2022-09-28T23:45:59.286Z,24.60
